Time;durP1;ratioP1;P1;durP2;ratioP2;P2;SDS_P1;SDS_P2;PMS_P1;PMS_P2;Temp;Humidity;BMP_temperature;BMP_pressure;BME280_temperature;BME280_humidity;BME280_pressure;Samples;Min_cycle;Max_cycle;Signal;HPM_P1;HPM_P2
2021/12/15 08:23:08;;;;;;;57.70;32.17;;;10.30;99.90;;;;;;5145349;27;20470;-69
2021/12/15 08:25:35;;;;;;;57.67;31.37;;;10.30;99.90;;;;;;5145936;27;20047;-69
2021/12/15 08:28:01;;;;;;;56.73;31.20;;;10.30;99.90;;;;;;5147385;27;20057;-69
2021/12/15 08:30:29;;;;;;;52.37;30.13;;;10.40;99.90;;;;;;5146626;27;20062;-68
2021/12/15 08:32:58;;;;;;;48.70;29.37;;;10.40;99.90;;;;;;5147294;27;20035;-69
2021/12/15 08:35:31;;;;;;;48.60;25.73;;;10.50;99.90;;;;;;5147092;27;20443;-72
2021/12/15 08:37:57;;;;;;;44.47;27.70;;;10.60;99.90;;;;;;5147124;27;20126;-67
2021/12/15 08:40:25;;;;;;;47.43;27.33;;;10.60;99.90;;;;;;5147289;27;20042;-67
2021/12/15 08:42:52;;;;;;;46.07;28.63;;;10.70;99.90;;;;;;5146007;27;20099;-68
2021/12/15 08:45:19;;;;;;;41.33;26.67;;;10.70;99.90;;;;;;5141130;27;20082;-69
2021/12/15 08:47:45;;;;;;;39.70;25.93;;;10.80;99.90;;;;;;5132683;27;20042;-70
2021/12/15 08:50:14;;;;;;;42.47;27.23;;;10.80;99.90;;;;;;5136593;27;20036;-74
2021/12/15 08:52:40;;;;;;;44.60;26.10;;;10.90;99.90;;;;;;5127394;27;20494;-70
2021/12/15 08:55:07;;;;;;;38.93;25.80;;;10.90;99.90;;;;;;5129958;27;22249;-66
2021/12/15 08:57:33;;;;;;;43.23;26.87;;;11.00;99.90;;;;;;5127000;27;20084;-72
2021/12/15 08:59:59;;;;;;;42.60;26.83;;;11.00;99.90;;;;;;5130060;27;20035;-69
2021/12/15 09:02:24;;;;;;;37.63;25.10;;;11.10;99.90;;;;;;5133530;27;20032;-71
2021/12/15 09:04:50;;;;;;;43.47;25.90;;;11.10;99.90;;;;;;5170978;27;20066;-69
2021/12/15 09:07:15;;;;;;;43.60;26.13;;;11.10;99.90;;;;;;5142093;27;20072;-69
2021/12/15 09:09:41;;;;;;;40.73;25.80;;;11.20;99.90;;;;;;5146148;27;20043;-69
2021/12/15 09:12:08;;;;;;;36.80;26.60;;;11.20;99.90;;;;;;5141097;27;20039;-70
2021/12/15 09:14:33;;;;;;;34.03;24.83;;;11.30;99.90;;;;;;5134670;27;20039;-70
2021/12/15 09:17:00;;;;;;;39.57;24.83;;;11.30;99.90;;;;;;5146905;27;20134;-70
2021/12/15 09:19:26;;;;;;;35.93;24.43;;;11.30;99.90;;;;;;5140176;27;20558;-71
2021/12/15 09:21:55;;;;;;;35.17;24.60;;;11.40;99.90;;;;;;5135461;27;20143;-69
2021/12/15 09:24:22;;;;;;;43.17;25.83;;;11.40;99.90;;;;;;5135923;27;20054;-67
2021/12/15 09:26:48;;;;;;;38.87;25.67;;;11.40;99.90;;;;;;5144373;27;20062;-67
2021/12/15 09:29:14;;;;;;;35.03;23.83;;;11.40;99.90;;;;;;5146664;27;20091;-68
2021/12/15 09:31:40;;;;;;;37.53;25.37;;;11.40;99.90;;;;;;5146087;27;20138;-67
2021/12/15 09:34:07;;;;;;;36.30;25.20;;;11.40;99.90;;;;;;5133426;27;20134;-71
2021/12/15 09:36:36;;;;;;;37.13;25.47;;;11.50;99.90;;;;;;5132280;27;20042;-70
2021/12/15 09:39:13;;;;;;;34.23;23.83;;;11.50;99.90;;;;;;5132156;27;20035;-67
2021/12/15 09:41:39;;;;;;;34.70;23.60;;;11.50;99.90;;;;;;5131071;27;20287;-67
2021/12/15 09:44:11;;;;;;;38.30;23.53;;;11.50;99.90;;;;;;5132487;27;20459;-67
2021/12/15 10:02:59;;;;;;;35.90;22.47;;;11.40;99.90;;;;;;5131915;27;20047;-75
2021/12/15 10:05:41;;;;;;;31.90;21.07;;;11.40;99.90;;;;;;5131907;27;20407;-72
2021/12/15 10:19:34;;;;;;;24.63;16.90;;;11.40;99.90;;;;;;5130230;27;20066;-70
2021/12/15 10:22:05;;;;;;;26.57;17.83;;;11.50;99.90;;;;;;5128119;27;20445;-70
2021/12/15 10:24:36;;;;;;;25.17;16.67;;;11.50;99.90;;;;;;5129994;27;20188;-70
2021/12/15 10:27:05;;;;;;;29.73;22.50;;;11.50;99.90;;;;;;5130667;27;20050;-70
2021/12/15 10:29:31;;;;;;;25.83;17.50;;;11.60;99.90;;;;;;5130622;27;20035;-70
2021/12/15 10:31:59;;;;;;;26.60;17.60;;;11.50;99.90;;;;;;5130250;27;20106;-69
2021/12/15 10:34:25;;;;;;;24.30;18.30;;;11.60;99.90;;;;;;5131151;27;20053;-70
2021/12/15 10:36:51;;;;;;;24.47;17.50;;;11.60;99.90;;;;;;5130858;27;20435;-70
2021/12/15 10:39:16;;;;;;;25.57;17.17;;;11.60;99.90;;;;;;5131316;27;20049;-70
2021/12/15 10:41:44;;;;;;;27.87;16.57;;;11.60;99.90;;;;;;5129601;27;20422;-70
2021/12/15 10:44:17;;;;;;;29.20;17.27;;;11.60;99.90;;;;;;5129861;27;20302;-70
2021/12/15 10:46:49;;;;;;;24.77;17.73;;;11.60;99.90;;;;;;5129315;27;20051;-69
2021/12/15 10:49:27;;;;;;;25.27;16.27;;;11.60;99.90;;;;;;5129986;27;20101;-69
2021/12/15 19:10:52;;;;;;;10.63;4.40;;;8.50;99.90;;;;;;5079058;28;20522;-70
2021/12/15 19:13:18;;;;;;;9.17;4.70;;;8.40;99.90;;;;;;5084075;28;20048;-69
2021/12/15 19:15:44;;;;;;;9.80;5.17;;;8.40;99.90;;;;;;5084121;28;20074;-71
2021/12/15 19:18:13;;;;;;;8.10;5.10;;;8.40;99.90;;;;;;5085432;28;20048;-72
2021/12/15 19:20:45;;;;;;;12.73;5.17;;;8.40;99.90;;;;;;5083205;28;20085;-70
2021/12/15 19:23:15;;;;;;;8.70;5.17;;;8.40;99.90;;;;;;5083617;28;20623;-72
2021/12/15 19:25:41;;;;;;;9.97;5.17;;;8.50;99.90;;;;;;5083741;28;20048;-71
2021/12/15 19:28:08;;;;;;;10.77;4.40;;;8.50;99.90;;;;;;5083804;28;20041;-73
2021/12/15 19:30:38;;;;;;;6.00;4.10;;;8.50;99.90;;;;;;5082643;28;20059;-76
2021/12/15 19:33:07;;;;;;;6.67;3.67;;;8.60;99.90;;;;;;5083878;28;20086;-74
2021/12/15 19:35:34;;;;;;;7.07;4.47;;;8.60;99.90;;;;;;5084862;28;20060;-73
2021/12/15 19:38:00;;;;;;;7.40;4.20;;;8.60;99.90;;;;;;5083619;28;20048;-74
2021/12/15 19:40:27;;;;;;;11.97;4.10;;;8.60;99.90;;;;;;5083403;28;20063;-76
2021/12/15 19:42:53;;;;;;;8.20;4.43;;;8.70;99.90;;;;;;5085077;28;20043;-76
2021/12/15 19:45:22;;;;;;;9.20;3.80;;;8.70;99.90;;;;;;5082746;28;20060;-76
2021/12/15 19:47:48;;;;;;;10.70;7.97;;;8.70;99.90;;;;;;5083564;28;20071;-78
2021/12/15 19:50:16;;;;;;;11.30;7.93;;;8.80;99.90;;;;;;5083623;28;20489;-77
2021/12/15 19:52:43;;;;;;;6.47;3.90;;;8.80;99.90;;;;;;5082745;28;20396;-73
2021/12/15 19:55:12;;;;;;;7.00;6.13;;;8.80;99.90;;;;;;5084083;28;20083;-76
2021/12/15 19:57:38;;;;;;;7.60;3.83;;;8.80;99.90;;;;;;5117386;28;20365;-75
2021/12/15 20:00:08;;;;;;;8.60;3.90;;;8.90;99.90;;;;;;5116738;28;20036;-77
2021/12/15 20:02:37;;;;;;;9.67;4.60;;;8.80;99.90;;;;;;5066117;28;20052;-74
2021/12/15 20:05:03;;;;;;;5.53;4.03;;;8.90;99.90;;;;;;5082274;28;20048;-75
